createdAt,value
2022-11-14T05:00:29.621Z,7.40
2022-11-14T05:03:00.746Z,7.50
2022-11-14T05:05:28.922Z,7.60
2022-11-14T05:07:57.095Z,7.60
2022-11-14T05:10:25.230Z,7.70
2022-11-14T05:12:55.291Z,7.80
2022-11-14T05:15:23.897Z,7.90
2022-11-14T05:17:53.891Z,7.90
2022-11-14T05:20:22.105Z,8.00
2022-11-14T05:22:55.183Z,8.00
2022-11-14T05:25:24.343Z,8.10
2022-11-14T05:27:52.673Z,8.10
2022-11-14T05:30:21.588Z,8.10
2022-11-14T05:32:49.832Z,8.20
2022-11-14T05:35:19.326Z,8.20
2022-11-14T05:37:47.574Z,8.20
2022-11-14T05:40:16.971Z,8.20
2022-11-14T05:42:45.126Z,8.20
2022-11-14T05:45:13.365Z,8.30
2022-11-14T05:47:41.727Z,8.30
2022-11-14T05:50:11.201Z,8.30
2022-11-14T05:52:40.764Z,8.30
2022-11-14T05:55:10.198Z,8.40
2022-11-14T05:57:38.376Z,8.40
2022-11-14T06:00:09.220Z,8.40
2022-11-14T06:02:37.402Z,8.40
2022-11-14T06:05:07.673Z,8.40
2022-11-14T06:07:35.882Z,8.30
2022-11-14T06:10:06.075Z,8.30
2022-11-14T06:12:34.424Z,8.30
2022-11-14T06:15:03.526Z,8.20
2022-11-14T06:17:31.736Z,8.20
2022-11-14T06:19:59.931Z,8.10
2022-11-14T06:22:28.152Z,8.00
2022-11-14T06:24:56.355Z,8.00
2022-11-14T06:27:25.931Z,7.90
2022-11-14T06:29:54.101Z,7.80
2022-11-14T06:32:22.377Z,7.80
2022-11-14T06:34:50.610Z,7.70
2022-11-14T06:37:18.820Z,7.60
2022-11-14T06:39:46.999Z,7.60
2022-11-14T06:42:17.525Z,7.60
2022-11-14T06:44:47.087Z,7.60
2022-11-14T06:47:15.267Z,7.60
2022-11-14T06:49:43.835Z,7.70
2022-11-14T06:52:12.088Z,7.70
2022-11-14T06:54:40.238Z,7.70
2022-11-14T06:57:08.531Z,7.80
2022-11-14T06:59:36.687Z,7.80
2022-11-14T07:02:06.308Z,7.90
2022-11-14T07:04:34.948Z,8.00
2022-11-14T07:07:03.183Z,8.10
2022-11-14T07:09:31.456Z,8.10
2022-11-14T07:11:59.700Z,8.20
2022-11-14T07:14:28.691Z,8.30
2022-11-14T07:16:57.092Z,8.40
2022-11-14T07:19:26.901Z,8.50
2022-11-14T07:21:55.068Z,8.50
2022-11-14T07:24:23.567Z,8.60
2022-11-14T07:26:51.747Z,8.60
2022-11-14T07:29:19.838Z,8.60
2022-11-14T07:31:47.990Z,8.60
2022-11-14T07:34:16.150Z,8.60
2022-11-14T07:36:46.026Z,8.60
2022-11-14T07:39:14.358Z,8.60
2022-11-14T07:41:42.532Z,8.70
2022-11-14T07:44:10.958Z,8.70
2022-11-14T07:46:39.925Z,8.80
2022-11-14T07:49:08.106Z,8.80
2022-11-14T07:51:37.434Z,8.90
2022-11-14T07:54:07.180Z,9.00
2022-11-14T07:56:35.315Z,9.10
2022-11-14T07:59:03.525Z,9.20
2022-11-14T08:01:31.824Z,9.30
2022-11-14T08:04:00.147Z,9.30
2022-11-14T08:06:28.599Z,9.40
2022-11-14T08:08:56.913Z,9.50
2022-11-14T08:11:40.362Z,9.60
2022-11-14T08:14:08.972Z,9.70
2022-11-14T08:16:37.185Z,9.90
2022-11-14T08:19:05.347Z,9.90
2022-11-14T08:21:33.630Z,10.00
2022-11-14T08:24:02.028Z,10.00
2022-11-14T08:26:34.299Z,10.00
2022-11-14T08:29:03.884Z,10.10
2022-11-14T08:31:32.094Z,10.20
2022-11-14T08:34:00.279Z,10.20
2022-11-14T08:36:28.876Z,10.30
2022-11-14T08:39:01.611Z,10.30
2022-11-14T08:41:32.024Z,10.30
2022-11-14T08:44:00.182Z,10.30
2022-11-14T08:46:28.401Z,10.40
2022-11-14T08:48:56.689Z,10.60
2022-11-14T08:51:24.916Z,10.70
2022-11-14T08:53:53.116Z,10.90
2022-11-14T08:56:21.585Z,11.10
2022-11-14T08:58:51.064Z,11.20
2022-11-14T09:01:19.219Z,11.30
2022-11-14T09:03:47.585Z,11.20
2022-11-14T09:06:16.372Z,11.30
2022-11-14T09:08:44.504Z,11.20
2022-11-14T09:11:15.477Z,11.20
2022-11-14T09:13:47.226Z,11.20
2022-11-14T09:16:16.898Z,11.30
2022-11-14T09:18:45.102Z,11.30
2022-11-14T09:21:13.459Z,11.40
2022-11-14T09:23:41.776Z,11.50
2022-11-14T09:26:11.468Z,11.60
2022-11-14T09:28:39.735Z,11.80
2022-11-14T09:31:11.641Z,12.00
2022-11-14T09:33:41.416Z,12.10
2022-11-14T09:36:15.778Z,12.20
2022-11-14T09:38:44.480Z,12.30
2022-11-14T09:41:26.164Z,12.50
2022-11-14T09:44:23.947Z,12.70
2022-11-14T09:47:02.405Z,12.90
2022-11-14T09:49:40.428Z,13.10
2022-11-14T09:52:22.997Z,13.30
2022-11-14T09:54:57.313Z,13.50
2022-11-14T09:57:27.775Z,13.60
2022-11-14T09:59:57.475Z,13.80
2022-11-14T10:02:41.367Z,14.00
2022-11-14T10:05:40.916Z,14.20
2022-11-14T10:08:30.473Z,14.40
2022-11-14T10:11:06.959Z,14.70
2022-11-14T10:14:23.959Z,14.90
2022-11-14T10:17:10.968Z,15.10
2022-11-14T10:19:52.837Z,15.30
2022-11-14T10:22:45.351Z,15.50
2022-11-14T10:25:27.044Z,15.60
2022-11-14T10:28:20.544Z,15.70
2022-11-14T10:30:58.294Z,15.90
2022-11-14T10:33:53.272Z,16.00
2022-11-14T10:36:46.833Z,16.30
2022-11-14T10:39:24.379Z,16.50
2022-11-14T10:42:03.211Z,16.80
2022-11-14T10:44:43.043Z,16.90
2022-11-14T10:47:17.327Z,17.10
2022-11-14T10:49:52.196Z,17.30
2022-11-14T10:52:27.545Z,17.50
2022-11-14T10:55:04.392Z,17.60
2022-11-14T10:57:34.150Z,17.80
2022-11-14T11:00:02.349Z,17.90
2022-11-14T11:02:52.106Z,18.00
2022-11-14T11:05:23.686Z,18.20
2022-11-14T11:08:36.270Z,18.40
2022-11-14T11:11:18.535Z,18.60
2022-11-14T11:13:56.042Z,18.90
2022-11-14T11:16:26.600Z,19.20
2022-11-14T11:18:54.861Z,19.50
2022-11-14T11:21:24.684Z,19.60
2022-11-14T11:23:55.559Z,19.60
2022-11-14T11:26:28.310Z,19.60
2022-11-14T11:29:07.403Z,19.60
2022-11-14T11:31:52.720Z,19.70
2022-11-14T11:34:26.600Z,19.90
2022-11-14T11:37:03.825Z,19.90
2022-11-14T11:39:41.205Z,20.00
2022-11-14T11:42:19.407Z,20.30
2022-11-14T11:44:54.674Z,20.60
2022-11-14T11:47:23.707Z,20.90
2022-11-14T11:49:54.784Z,21.00
2022-11-14T11:52:35.435Z,21.10
2022-11-14T11:55:18.389Z,21.20
2022-11-14T11:57:57.822Z,21.20
2022-11-14T12:00:26.376Z,21.30
2022-11-14T12:02:55.888Z,21.60
2022-11-14T12:05:35.400Z,21.70
2022-11-14T12:08:09.576Z,21.90
2022-11-14T12:10:43.129Z,22.30
2022-11-14T12:13:49.947Z,22.50
2022-11-14T12:17:00.042Z,22.80
2022-11-14T12:20:15.733Z,22.90
2022-11-14T12:23:13.648Z,23.40
2022-11-14T12:26:06.666Z,24.00
2022-11-14T12:29:02.370Z,24.40
2022-11-14T12:31:36.312Z,24.80
2022-11-14T12:34:15.582Z,25.10
2022-11-14T12:36:46.708Z,25.50
2022-11-14T12:39:26.664Z,25.70
2022-11-14T12:42:04.227Z,25.60
2022-11-14T12:44:39.950Z,25.50
2022-11-14T12:47:17.754Z,25.80
2022-11-14T12:50:06.283Z,26.10
2022-11-14T12:52:53.964Z,26.10
2022-11-14T12:56:08.862Z,25.70
2022-11-14T12:59:11.855Z,25.60
2022-11-14T13:02:00.408Z,25.70
2022-11-14T13:04:45.506Z,25.20
2022-11-14T13:07:34.546Z,25.20
2022-11-14T13:10:14.838Z,25.60
2022-11-14T13:13:15.339Z,25.70
2022-11-14T13:16:09.817Z,25.70
2022-11-14T13:19:12.140Z,24.80
2022-11-14T13:22:00.553Z,25.30
2022-11-14T13:25:12.705Z,25.20
2022-11-14T13:31:07.189Z,25.70
2022-11-14T13:33:44.551Z,25.80
2022-11-14T13:36:23.444Z,25.80
2022-11-14T13:39:24.558Z,26.30
2022-11-14T13:42:46.610Z,26.40
2022-11-14T13:45:56.628Z,26.40
2022-11-14T13:49:11.298Z,27.00
2022-11-14T13:51:44.211Z,27.20
2022-11-14T13:54:18.017Z,27.40
2022-11-14T13:57:04.110Z,27.40
2022-11-14T13:59:57.929Z,27.40
2022-11-14T14:03:05.714Z,27.40
2022-11-14T14:06:05.874Z,27.30
2022-11-14T14:08:58.820Z,27.00
2022-11-14T14:11:53.040Z,27.00
2022-11-14T14:14:48.878Z,26.80
2022-11-14T14:17:28.622Z,26.70
2022-11-14T14:20:17.592Z,26.30
2022-11-14T14:23:02.685Z,26.10
2022-11-14T14:25:43.393Z,25.80
2022-11-14T14:28:25.258Z,25.60
2022-11-14T14:31:05.513Z,25.50
2022-11-14T14:33:42.489Z,25.30
2022-11-14T14:36:25.230Z,25.10
2022-11-14T14:39:18.575Z,24.70
2022-11-14T14:41:48.770Z,24.00
2022-11-14T14:44:26.407Z,23.00
2022-11-14T14:46:56.307Z,21.80
2022-11-14T14:49:29.116Z,20.70
2022-11-14T14:51:58.943Z,19.60
2022-11-14T14:54:30.759Z,18.60
2022-11-14T14:57:01.332Z,17.80
2022-11-14T14:59:32.018Z,17.00
2022-11-14T15:02:00.390Z,16.30
2022-11-14T15:04:30.939Z,15.60
2022-11-14T15:06:59.424Z,15.00
2022-11-14T15:09:31.313Z,14.60
2022-11-14T15:12:02.794Z,14.20
2022-11-14T15:14:36.307Z,13.80
2022-11-14T15:17:05.960Z,13.40
2022-11-14T15:19:41.924Z,13.10
2022-11-14T15:22:26.288Z,12.80
2022-11-14T15:25:21.742Z,12.50
2022-11-14T15:27:54.275Z,12.20
2022-11-14T15:30:25.806Z,12.00
2022-11-14T15:32:57.052Z,11.80
2022-11-14T15:35:36.120Z,11.50
2022-11-14T15:38:42.143Z,11.30
2022-11-14T15:41:29.683Z,11.20
2022-11-14T15:44:08.431Z,10.90
2022-11-14T15:46:44.367Z,10.70
2022-11-14T15:49:23.199Z,10.60
2022-11-14T15:51:55.937Z,10.40
2022-11-14T15:54:31.151Z,10.30
2022-11-14T15:57:03.188Z,10.20
2022-11-14T15:59:32.026Z,10.10
2022-11-14T16:02:11.194Z,10.00
2022-11-14T16:04:44.583Z,9.90
2022-11-14T16:07:18.208Z,9.90
2022-11-14T16:09:47.354Z,9.80
2022-11-14T16:12:17.082Z,9.70
2022-11-14T16:14:45.575Z,9.60
2022-11-14T16:17:16.217Z,9.50
2022-11-14T16:19:45.123Z,9.50
2022-11-14T16:22:17.818Z,9.40
2022-11-14T16:24:46.210Z,9.30
2022-11-14T16:27:15.742Z,9.30
2022-11-14T16:29:44.011Z,9.20
2022-11-14T16:32:12.455Z,9.20
2022-11-14T16:34:40.579Z,9.10
2022-11-14T16:37:14.251Z,9.10
2022-11-14T16:39:42.431Z,9.10
2022-11-14T16:42:12.475Z,9.00
2022-11-14T16:44:46.448Z,9.00
2022-11-14T16:47:19.780Z,8.90
2022-11-14T16:49:47.987Z,8.90
2022-11-14T16:52:17.058Z,8.90
2022-11-14T16:54:45.224Z,8.80
2022-11-14T16:57:13.774Z,8.80
2022-11-14T16:59:43.290Z,8.80
2022-11-14T17:02:16.588Z,8.70
2022-11-14T17:04:45.825Z,8.70
2022-11-14T17:07:17.725Z,8.60
2022-11-14T17:09:50.416Z,8.60
2022-11-14T17:12:18.601Z,8.50
2022-11-14T17:14:48.127Z,8.50
2022-11-14T17:17:16.262Z,8.50
2022-11-14T17:19:46.064Z,8.40
2022-11-14T17:22:15.218Z,8.40
2022-11-14T17:24:44.238Z,8.30
2022-11-14T17:27:13.766Z,8.30
2022-11-14T17:29:42.023Z,8.30
2022-11-14T17:32:11.582Z,8.30
2022-11-14T17:34:39.744Z,8.20
2022-11-14T17:37:07.872Z,8.20
2022-11-14T17:39:36.051Z,8.20
2022-11-14T17:42:04.296Z,8.20
2022-11-14T17:44:32.453Z,8.20
2022-11-14T17:47:00.974Z,8.20
2022-11-14T17:49:31.952Z,8.20
2022-11-14T17:52:00.097Z,8.20
2022-11-14T17:54:28.292Z,8.20
2022-11-14T17:56:57.471Z,8.20
2022-11-14T17:59:25.683Z,8.10
2022-11-14T18:01:55.906Z,8.10
2022-11-14T18:04:24.148Z,8.10
2022-11-14T18:06:54.239Z,8.10
2022-11-14T18:09:22.943Z,8.10
2022-11-14T18:11:51.106Z,8.10
2022-11-14T18:14:19.292Z,8.10
2022-11-14T18:17:11.171Z,8.10
2022-11-14T18:19:36.667Z,8.10
2022-11-14T18:22:07.187Z,8.10
2022-11-14T18:24:35.324Z,8.10
2022-11-14T18:27:03.575Z,8.10
2022-11-14T18:29:31.691Z,8.10
2022-11-14T18:31:59.817Z,8.10
2022-11-14T18:34:28.108Z,8.00
2022-11-14T18:36:56.265Z,8.10
2022-11-14T18:39:26.462Z,8.00
2022-11-14T18:41:54.601Z,8.10
2022-11-14T18:44:24.182Z,8.00
2022-11-14T18:46:52.486Z,8.00
2022-11-14T18:49:21.022Z,8.00
2022-11-14T18:51:49.333Z,8.00
2022-11-14T18:54:18.834Z,7.90
2022-11-14T18:56:48.380Z,8.00
2022-11-14T18:59:16.519Z,7.90
2022-11-14T19:01:45.009Z,7.90
2022-11-14T19:04:17.156Z,7.90
2022-11-14T19:06:45.358Z,7.90
2022-11-14T19:09:18.250Z,7.90
2022-11-14T19:12:05.234Z,7.80
2022-11-14T19:14:33.918Z,7.80
2022-11-14T19:17:02.546Z,7.80
2022-11-14T19:19:31.144Z,7.80
2022-11-14T19:21:59.386Z,7.80
2022-11-14T19:24:27.506Z,7.70
2022-11-14T19:26:57.698Z,7.70
2022-11-14T19:29:25.829Z,7.70
2022-11-14T19:31:54.539Z,7.60
2022-11-14T19:34:22.700Z,7.60
2022-11-14T19:36:59.762Z,7.60
2022-11-14T19:39:28.731Z,7.60
2022-11-14T19:41:58.367Z,7.50
2022-11-14T19:44:26.723Z,7.50
2022-11-14T19:46:54.863Z,7.50
2022-11-14T19:49:23.056Z,7.50
2022-11-14T19:51:51.286Z,7.50
2022-11-14T19:54:19.501Z,7.40
2022-11-14T19:56:47.622Z,7.40
2022-11-14T19:59:21.562Z,7.40
2022-11-14T20:01:55.136Z,7.30
2022-11-14T20:04:24.007Z,7.20
2022-11-14T20:06:52.641Z,7.20
2022-11-14T20:09:20.924Z,7.20
2022-11-14T20:11:49.309Z,7.20
2022-11-14T20:14:19.474Z,7.20
2022-11-14T20:16:47.762Z,7.10
2022-11-14T20:19:16.428Z,7.20
2022-11-14T20:21:44.654Z,7.10
2022-11-14T20:24:15.338Z,7.10
2022-11-14T20:26:43.606Z,7.10
2022-11-14T20:29:11.850Z,7.10
2022-11-14T20:31:41.435Z,7.10
2022-11-14T20:34:12.583Z,7.10
2022-11-14T20:37:09.216Z,7.10
2022-11-14T20:39:29.470Z,7.10
2022-11-14T20:41:57.703Z,7.10
2022-11-14T20:44:26.282Z,7.10
2022-11-14T20:46:56.873Z,7.10
2022-11-14T20:49:25.097Z,7.10
2022-11-14T20:51:53.384Z,7.10
2022-11-14T20:54:21.646Z,7.10
2022-11-14T20:56:49.855Z,7.10
2022-11-14T20:59:18.025Z,7.10
2022-11-14T21:01:46.293Z,7.10
2022-11-14T21:04:15.854Z,7.10
2022-11-14T21:06:44.126Z,7.10
2022-11-14T21:09:12.396Z,7.10
2022-11-14T21:11:40.582Z,7.10
2022-11-14T21:14:09.128Z,7.10
2022-11-14T21:16:40.599Z,7.10
2022-11-14T21:19:08.982Z,7.10
2022-11-14T21:21:39.568Z,7.00
2022-11-14T21:24:08.758Z,7.00
2022-11-14T21:26:39.949Z,7.00
2022-11-14T21:29:12.569Z,7.00
2022-11-14T21:31:44.484Z,6.90
2022-11-14T21:34:15.286Z,6.90
2022-11-14T21:36:46.910Z,6.90
2022-11-14T21:39:17.691Z,6.90
2022-11-14T21:41:48.366Z,6.90
2022-11-14T21:44:18.891Z,6.90
2022-11-14T21:46:48.572Z,6.90
2022-11-14T21:49:17.624Z,6.80
2022-11-14T21:51:48.314Z,6.80
2022-11-14T21:54:16.668Z,6.80
2022-11-14T21:56:44.815Z,6.80
2022-11-14T21:59:18.579Z,6.70
